Time,TemperatureF,DewpointF,PressureIn,WindDirection,WindDirectionDegrees,WindSpeedMPH,WindSpeedGustMPH,Humidity,HourlyPrecipIn,Conditions,Clouds,dailyrainin,SoftwareType,DateUTC
2013-05-30 00:02:00,62.0,53.0,-100.00,SSE,160,1.0,1.0,72,-99.99,,,-99.99,,2013-05-30 05:02:00,
2013-05-30 00:12:00,62.0,53.0,-100.00,SSE,160,1.0,1.0,72,-99.99,,,-99.99,,2013-05-30 05:12:00,
2013-05-30 00:22:00,62.0,53.0,-100.00,SSE,160,1.0,1.0,72,-99.99,,,-99.99,,2013-05-30 05:22:00,
2013-05-30 00:32:00,75.0,66.0,-100.00,South,170,1.0,1.0,74,-99.99,,,-99.99,,2013-05-30 05:32:00,
2013-05-30 00:43:00,65.0,57.0,-100.00,South,175,1.0,1.0,75,-99.99,,,-99.99,,2013-05-30 05:43:00,
2013-05-30 00:52:00,65.0,57.0,-100.00,South,175,1.0,1.0,75,-99.99,,,-99.99,,2013-05-30 05:52:00,
2013-05-30 01:01:00,70.0,62.0,-100.00,South,170,1.0,1.0,76,-99.99,,,-99.99,,2013-05-30 06:01:00,
2013-05-30 01:12:00,72.0,64.0,-100.00,SSE,165,1.0,1.0,77,-99.99,,,-99.99,,2013-05-30 06:12:00,
2013-05-30 01:22:00,72.0,64.0,-100.00,SSE,165,1.0,1.0,77,-99.99,,,-99.99,,2013-05-30 06:22:00,
2013-05-30 01:32:00,70.0,62.0,-100.00,SSE,165,1.0,1.0,76,-99.99,,,-99.99,,2013-05-30 06:32:00,
2013-05-30 01:42:00,72.0,64.0,-100.00,SSE,160,1.0,1.0,76,-99.99,,,-99.99,,2013-05-30 06:42:00,
2013-05-30 01:52:00,72.0,64.0,-100.00,SSE,160,1.0,1.0,76,-99.99,,,-99.99,,2013-05-30 06:52:00,
2013-05-30 02:01:00,69.0,61.0,-100.00,SSE,150,1.0,1.0,76,-99.99,,,-99.99,,2013-05-30 07:01:00,
2013-05-30 02:12:00,69.0,63.0,-100.00,SSE,160,1.0,1.0,81,-99.99,,,-99.99,,2013-05-30 07:12:00,
2013-05-30 02:22:00,69.0,63.0,-100.00,SSE,160,1.0,1.0,81,-99.99,,,-99.99,,2013-05-30 07:22:00,
2013-05-30 02:32:00,70.0,62.0,-100.00,SSE,165,1.0,1.0,76,-99.99,,,-99.99,,2013-05-30 07:32:00,
2013-05-30 02:42:00,63.0,56.0,-100.00,South,170,1.0,1.0,76,-99.99,,,-99.99,,2013-05-30 07:42:00,
2013-05-30 02:52:00,63.0,56.0,-100.00,South,170,1.0,1.0,76,-99.99,,,-99.99,,2013-05-30 07:52:00,
2013-05-30 03:02:00,70.0,62.0,-100.00,South,170,1.0,1.0,76,-99.99,,,-99.99,,2013-05-30 08:02:00,
2013-05-30 03:11:00,71.0,65.0,-100.00,SSE,160,1.0,1.0,80,-99.99,,,-99.99,,2013-05-30 08:11:00,
2013-05-30 03:22:00,71.0,65.0,-100.00,SSE,160,1.0,1.0,80,-99.99,,,-99.99,,2013-05-30 08:22:00,
2013-05-30 03:32:00,66.0,57.0,-100.00,SSE,155,1.0,1.0,74,-99.99,,,-99.99,,2013-05-30 08:32:00,
2013-05-30 03:42:00,73.0,65.0,-100.00,SSE,165,1.0,1.0,76,-99.99,,,-99.99,,2013-05-30 08:42:00,
2013-05-30 03:53:00,73.0,65.0,-100.00,SSE,165,1.0,1.0,76,-99.99,,,-99.99,,2013-05-30 08:53:00,
2013-05-30 04:01:00,69.0,62.0,-100.00,South,170,1.0,1.0,77,-99.99,,,-99.99,,2013-05-30 09:01:00,
2013-05-30 04:11:00,68.0,61.0,-100.00,SSE,155,1.0,1.0,77,-99.99,,,-99.99,,2013-05-30 09:11:00,
2013-05-30 04:21:00,68.0,61.0,-100.00,SSE,155,1.0,1.0,77,-99.99,,,-99.99,,2013-05-30 09:21:00,
2013-05-30 04:33:00,69.0,62.0,-100.00,SSE,160,1.0,1.0,79,-99.99,,,-99.99,,2013-05-30 09:33:00,
2013-05-30 04:42:00,69.0,63.0,-100.00,SSE,165,1.0,1.0,80,-99.99,,,-99.99,,2013-05-30 09:42:00,
2013-05-30 04:53:00,69.0,63.0,-100.00,SSE,165,1.0,1.0,80,-99.99,,,-99.99,,2013-05-30 09:53:00,
2013-05-30 05:03:00,73.0,66.0,-100.00,SSE,160,1.0,1.0,81,-99.99,,,-99.99,,2013-05-30 10:03:00,
2013-05-30 05:13:00,65.0,58.0,-100.00,SSE,165,1.0,1.0,80,-99.99,,,-99.99,,2013-05-30 10:13:00,
2013-05-30 05:23:00,65.0,58.0,-100.00,SSE,165,1.0,1.0,80,-99.99,,,-99.99,,2013-05-30 10:23:00,
2013-05-30 05:32:00,69.0,62.0,-100.00,South,170,1.0,1.0,80,-99.99,,,-99.99,,2013-05-30 10:32:00,
2013-05-30 05:42:00,69.0,63.0,-100.00,South,170,1.0,1.0,80,-99.99,,,-99.99,,2013-05-30 10:42:00,
2013-05-30 05:52:00,69.0,63.0,-100.00,South,170,1.0,1.0,80,-99.99,,,-99.99,,2013-05-30 10:52:00,
2013-05-30 06:03:00,69.0,63.0,-100.00,SSE,165,1.0,1.0,81,-99.99,,,-99.99,,2013-05-30 11:03:00,
2013-05-30 06:12:00,69.0,64.0,-100.00,South,170,1.0,1.0,84,-99.99,,,-99.99,,2013-05-30 11:12:00,
2013-05-30 06:22:00,69.0,64.0,-100.00,South,170,1.0,1.0,84,-99.99,,,-99.99,,2013-05-30 11:22:00,
2013-05-30 06:32:00,69.0,63.0,-100.00,South,180,1.0,1.0,82,-99.99,,,-99.99,,2013-05-30 11:32:00,
2013-05-30 06:42:00,69.0,60.0,-100.00,South,180,1.0,1.0,73,-99.99,,,-99.99,,2013-05-30 11:42:00,
2013-05-30 06:52:00,69.0,60.0,-100.00,South,180,1.0,1.0,73,-99.99,,,-99.99,,2013-05-30 11:52:00,
2013-05-30 07:01:00,72.0,63.0,-100.00,South,180,1.0,1.0,75,-99.99,,,-99.99,,2013-05-30 12:01:00,
2013-05-30 07:11:00,72.0,63.0,-100.00,South,180,1.0,1.0,73,-99.99,,,-99.99,,2013-05-30 12:11:00,
2013-05-30 07:22:00,72.0,63.0,-100.00,South,180,1.0,1.0,73,-99.99,,,-99.99,,2013-05-30 12:22:00,
2013-05-30 07:32:00,72.0,63.0,-100.00,South,180,1.0,1.0,73,-99.99,,,-99.99,,2013-05-30 12:32:00,
2013-05-30 07:42:00,73.0,65.0,-100.00,South,175,1.0,1.0,77,-99.99,,,-99.99,,2013-05-30 12:42:00,
2013-05-30 07:52:00,73.0,65.0,-100.00,South,175,1.0,1.0,77,-99.99,,,-99.99,,2013-05-30 12:52:00,
2013-05-30 08:01:00,67.0,58.0,-100.00,South,180,1.0,1.0,73,-99.99,,,-99.99,,2013-05-30 13:01:00,
2013-05-30 08:11:00,74.0,65.0,-100.00,South,180,1.0,1.0,75,-99.99,,,-99.99,,2013-05-30 13:11:00,
2013-05-30 08:22:00,74.0,65.0,-100.00,South,180,1.0,1.0,75,-99.99,,,-99.99,,2013-05-30 13:22:00,
2013-05-30 08:32:00,67.0,59.0,-100.00,South,175,1.0,1.0,74,-99.99,,,-99.99,,2013-05-30 13:32:00,
2013-05-30 08:42:00,68.0,60.0,-100.00,South,185,1.0,1.0,74,-99.99,,,-99.99,,2013-05-30 13:42:00,
2013-05-30 08:52:00,68.0,60.0,-100.00,South,185,1.0,1.0,74,-99.99,,,-99.99,,2013-05-30 13:52:00,
2013-05-30 09:01:00,74.0,64.0,-100.00,South,175,1.0,1.0,72,-99.99,,,-99.99,,2013-05-30 14:01:00,
2013-05-30 09:11:00,74.0,64.0,-100.00,South,180,1.0,1.0,72,-99.99,,,-99.99,,2013-05-30 14:11:00,
2013-05-30 09:22:00,74.0,64.0,-100.00,South,180,1.0,1.0,72,-99.99,,,-99.99,,2013-05-30 14:22:00,
2013-05-30 09:32:00,75.0,65.0,-100.00,South,185,1.0,1.0,72,-99.99,,,-99.99,,2013-05-30 14:32:00,
2013-05-30 09:42:00,74.0,63.0,-100.00,South,170,1.0,1.0,69,-99.99,,,-99.99,,2013-05-30 14:42:00,
2013-05-30 09:52:00,74.0,63.0,-100.00,South,170,1.0,1.0,69,-99.99,,,-99.99,,2013-05-30 14:52:00,
2013-05-30 10:01:00,70.0,60.0,-100.00,SSE,165,1.0,1.0,71,-99.99,,,-99.99,,2013-05-30 15:01:00,
2013-05-30 10:11:00,75.0,65.0,-100.00,South,175,1.0,1.0,72,-99.99,,,-99.99,,2013-05-30 15:11:00,
2013-05-30 10:22:00,75.0,65.0,-100.00,South,175,1.0,1.0,72,-99.99,,,-99.99,,2013-05-30 15:22:00,
2013-05-30 10:33:00,64.0,53.0,-100.00,South,175,1.0,1.0,67,-99.99,,,-99.99,,2013-05-30 15:33:00,
2013-05-30 10:42:00,79.0,68.0,-100.00,SSW,195,1.0,1.0,67,-99.99,,,-99.99,,2013-05-30 15:42:00,
2013-05-30 10:53:00,79.0,68.0,-100.00,SSW,195,1.0,1.0,67,-99.99,,,-99.99,,2013-05-30 15:53:00,
2013-05-30 11:03:00,77.0,65.0,-100.00,South,185,1.0,1.0,66,-99.99,,,-99.99,,2013-05-30 16:03:00,
2013-05-30 11:12:00,74.0,62.0,-100.00,South,190,1.0,1.0,67,-99.99,,,-99.99,,2013-05-30 16:12:00,
2013-05-30 11:23:00,74.0,62.0,-100.00,South,190,1.0,1.0,67,-99.99,,,-99.99,,2013-05-30 16:23:00,
2013-05-30 11:33:00,77.0,64.0,-100.00,SSW,195,1.0,1.0,65,-99.99,,,-99.99,,2013-05-30 16:33:00,
2013-05-30 11:42:00,77.0,64.0,-100.00,SSW,195,1.0,1.0,65,-99.99,,,-99.99,,2013-05-30 16:42:00,
2013-05-30 11:53:00,77.0,64.0,-100.00,SSW,195,1.0,1.0,65,-99.99,,,-99.99,,2013-05-30 16:53:00,
2013-05-30 12:02:00,78.0,65.0,-100.00,South,190,1.0,1.0,65,-99.99,,,-99.99,,2013-05-30 17:02:00,
2013-05-30 12:12:00,81.0,66.0,-100.00,SSW,210,1.0,1.0,62,-99.99,,,-99.99,,2013-05-30 17:12:00,
2013-05-30 12:22:00,81.0,66.0,-100.00,SSW,210,1.0,1.0,62,-99.99,,,-99.99,,2013-05-30 17:22:00,
2013-05-30 12:32:00,72.0,58.0,-100.00,SSW,200,1.0,1.0,61,-99.99,,,-99.99,,2013-05-30 17:32:00,
2013-05-30 12:42:00,79.0,64.0,-100.00,SSW,195,1.0,1.0,61,-99.99,,,-99.99,,2013-05-30 17:42:00,
2013-05-30 12:52:00,79.0,64.0,-100.00,SSW,195,1.0,1.0,61,-99.99,,,-99.99,,2013-05-30 17:52:00,
2013-05-30 13:02:00,79.0,64.0,-100.00,SSW,195,1.0,1.0,60,-99.99,,,-99.99,,2013-05-30 18:02:00,
2013-05-30 13:11:00,84.0,68.0,-100.00,SSW,200,1.0,1.0,60,-99.99,,,-99.99,,2013-05-30 18:11:00,
2013-05-30 13:22:00,84.0,68.0,-100.00,SSW,200,1.0,1.0,60,-99.99,,,-99.99,,2013-05-30 18:22:00,
2013-05-30 13:32:00,80.0,65.0,-100.00,South,185,1.0,1.0,60,-99.99,,,-99.99,,2013-05-30 18:32:00,
2013-05-30 13:42:00,79.0,64.0,-100.00,SSW,200,1.0,1.0,60,-99.99,,,-99.99,,2013-05-30 18:42:00,
2013-05-30 13:52:00,79.0,64.0,-100.00,SSW,200,1.0,1.0,60,-99.99,,,-99.99,,2013-05-30 18:52:00,
2013-05-30 14:01:00,78.0,68.0,-100.00,South,190,1.0,1.0,72,-99.99,,,-99.99,,2013-05-30 19:01:00,
2013-05-30 14:12:00,70.0,57.0,-100.00,South,190,1.0,1.0,63,-99.99,,,-99.99,,2013-05-30 19:12:00,
2013-05-30 14:23:00,70.0,57.0,-100.00,South,190,1.0,1.0,63,-99.99,,,-99.99,,2013-05-30 19:23:00,
2013-05-30 14:32:00,81.0,67.0,-100.00,SSW,200,1.0,1.0,63,-99.99,,,-99.99,,2013-05-30 19:32:00,
2013-05-30 14:42:00,76.0,58.0,-100.00,SSW,205,1.0,1.0,53,-99.99,,,-99.99,,2013-05-30 19:42:00,
2013-05-30 14:53:00,76.0,58.0,-100.00,SSW,205,1.0,1.0,53,-99.99,,,-99.99,,2013-05-30 19:53:00,
2013-05-30 15:01:00,83.0,62.0,-100.00,South,190,1.0,1.0,49,-99.99,,,-99.99,,2013-05-30 20:01:00,
2013-05-30 15:11:00,81.0,63.0,-100.00,South,185,1.0,1.0,55,-99.99,,,-99.99,,2013-05-30 20:11:00,
2013-05-30 15:22:00,81.0,63.0,-100.00,South,185,1.0,1.0,55,-99.99,,,-99.99,,2013-05-30 20:22:00,
2013-05-30 15:33:00,80.0,62.0,-100.00,SSW,195,1.0,1.0,53,-99.99,,,-99.99,,2013-05-30 20:33:00,
2013-05-30 15:42:00,82.0,63.0,-100.00,South,180,1.0,1.0,53,-99.99,,,-99.99,,2013-05-30 20:42:00,
2013-05-30 15:52:00,82.0,63.0,-100.00,South,180,1.0,1.0,53,-99.99,,,-99.99,,2013-05-30 20:52:00,
2013-05-30 16:01:00,84.0,65.0,-100.00,SSW,195,1.0,1.0,53,-99.99,,,-99.99,,2013-05-30 21:01:00,
2013-05-30 16:11:00,83.0,65.0,-100.00,SSW,200,1.0,1.0,54,-99.99,,,-99.99,,2013-05-30 21:11:00,
2013-05-30 16:22:00,83.0,65.0,-100.00,SSW,200,1.0,1.0,54,-99.99,,,-99.99,,2013-05-30 21:22:00,
2013-05-30 16:33:00,65.0,48.0,-100.00,SSW,195,1.0,1.0,53,-99.99,,,-99.99,,2013-05-30 21:33:00,
2013-05-30 16:43:00,80.0,62.0,-100.00,SSW,205,1.0,1.0,54,-99.99,,,-99.99,,2013-05-30 21:43:00,
2013-05-30 16:53:00,80.0,62.0,-100.00,SSW,205,1.0,1.0,54,-99.99,,,-99.99,,2013-05-30 21:53:00,
2013-05-30 17:02:00,83.0,64.0,-100.00,SSW,195,1.0,1.0,53,-99.99,,,-99.99,,2013-05-30 22:02:00,
2013-05-30 17:12:00,68.0,50.0,-100.00,SSW,195,1.0,1.0,52,-99.99,,,-99.99,,2013-05-30 22:12:00,
2013-05-30 17:23:00,68.0,50.0,-100.00,SSW,195,1.0,1.0,52,-99.99,,,-99.99,,2013-05-30 22:23:00,
2013-05-30 17:33:00,80.0,61.0,-100.00,South,185,1.0,1.0,52,-99.99,,,-99.99,,2013-05-30 22:33:00,
2013-05-30 17:42:00,76.0,59.0,-100.00,South,180,1.0,1.0,55,-99.99,,,-99.99,,2013-05-30 22:42:00,
2013-05-30 17:52:00,76.0,59.0,-100.00,South,180,1.0,1.0,55,-99.99,,,-99.99,,2013-05-30 22:52:00,
2013-05-30 18:02:00,77.0,63.0,-100.00,South,185,1.0,1.0,62,-99.99,,,-99.99,,2013-05-30 23:02:00,
2013-05-30 18:11:00,79.0,58.0,-100.00,SSW,200,1.0,1.0,49,-99.99,,,-99.99,,2013-05-30 23:11:00,
2013-05-30 18:22:00,79.0,58.0,-100.00,SSW,200,1.0,1.0,49,-99.99,,,-99.99,,2013-05-30 23:22:00,
2013-05-30 18:32:00,79.0,58.0,-100.00,SSW,200,1.0,1.0,49,-99.99,,,-99.99,,2013-05-30 23:32:00,
2013-05-30 18:41:00,79.0,61.0,-100.00,South,190,1.0,1.0,53,-99.99,,,-99.99,,2013-05-30 23:41:00,
2013-05-30 18:52:00,79.0,61.0,-100.00,South,190,1.0,1.0,53,-99.99,,,-99.99,,2013-05-30 23:52:00,
2013-05-30 19:01:00,77.0,60.0,-100.00,South,190,1.0,1.0,55,-99.99,,,-99.99,,2013-05-31 00:01:00,
2013-05-30 19:11:00,73.0,56.0,-100.00,South,190,1.0,1.0,54,-99.99,,,-99.99,,2013-05-31 00:11:00,
2013-05-30 19:22:00,73.0,56.0,-100.00,South,190,1.0,1.0,54,-99.99,,,-99.99,,2013-05-31 00:22:00,
2013-05-30 19:32:00,74.0,58.0,-100.00,South,190,1.0,1.0,57,-99.99,,,-99.99,,2013-05-31 00:32:00,
2013-05-30 19:42:00,77.0,63.0,-100.00,SSW,195,1.0,1.0,61,-99.99,,,-99.99,,2013-05-31 00:42:00,
2013-05-30 19:52:00,77.0,63.0,-100.00,SSW,195,1.0,1.0,61,-99.99,,,-99.99,,2013-05-31 00:52:00,
2013-05-30 20:01:00,76.0,63.0,-100.00,South,190,1.0,1.0,64,-99.99,,,-99.99,,2013-05-31 01:01:00,
2013-05-30 20:12:00,76.0,63.0,-100.00,South,190,1.0,1.0,64,-99.99,,,-99.99,,2013-05-31 01:12:00,
2013-05-30 20:21:00,76.0,63.0,-100.00,South,190,1.0,1.0,64,-99.99,,,-99.99,,2013-05-31 01:21:00,
2013-05-30 20:32:00,76.0,59.0,-100.00,SSW,200,1.0,1.0,56,-99.99,,,-99.99,,2013-05-31 01:32:00,
2013-05-30 20:42:00,66.0,53.0,-100.00,WNW,295,1.0,1.0,64,-99.99,,,-99.99,,2013-05-31 01:42:00,
2013-05-30 20:52:00,66.0,53.0,-100.00,WNW,295,1.0,1.0,64,-99.99,,,-99.99,,2013-05-31 01:52:00,
2013-05-30 21:02:00,65.0,55.0,-100.00,NW,310,1.0,1.0,69,-99.99,,,-99.99,,2013-05-31 02:02:00,
2013-05-30 21:11:00,67.0,59.0,-100.00,North,5,1.0,1.0,75,-99.99,,,-99.99,,2013-05-31 02:11:00,
2013-05-30 21:22:00,67.0,59.0,-100.00,North,5,1.0,1.0,75,-99.99,,,-99.99,,2013-05-31 02:22:00,
2013-05-30 21:32:00,63.0,58.0,-100.00,WNW,290,1.0,1.0,86,-99.99,,,-99.99,,2013-05-31 02:32:00,
2013-05-30 21:41:00,65.0,62.0,-100.00,NW,315,1.0,1.0,90,-99.99,,,-99.99,,2013-05-31 02:41:00,
2013-05-30 21:52:00,65.0,62.0,-100.00,NW,315,1.0,1.0,90,-99.99,,,-99.99,,2013-05-31 02:52:00,
2013-05-30 22:01:00,62.0,58.0,-100.00,NNW,330,1.0,1.0,86,-99.99,,,-99.99,,2013-05-31 03:01:00,
2013-05-30 22:11:00,60.0,56.0,-100.00,North,5,1.0,1.0,89,-99.99,,,-99.99,,2013-05-31 03:11:00,
2013-05-30 22:21:00,60.0,56.0,-100.00,North,5,1.0,1.0,89,-99.99,,,-99.99,,2013-05-31 03:21:00,
2013-05-30 22:33:00,51.0,50.0,-100.00,North,350,1.0,1.0,96,-99.99,,,-99.99,,2013-05-31 03:33:00,
2013-05-30 22:43:00,64.0,61.0,-100.00,ENE,75,1.0,1.0,90,-99.99,,,-99.99,,2013-05-31 03:43:00,
2013-05-30 22:53:00,64.0,61.0,-100.00,ENE,75,1.0,1.0,90,-99.99,,,-99.99,,2013-05-31 03:53:00,
2013-05-30 23:02:00,65.0,62.0,-100.00,ESE,115,1.0,1.0,90,-99.99,,,-99.99,,2013-05-31 04:02:00,
2013-05-30 23:12:00,65.0,63.0,-100.00,ESE,110,1.0,1.0,91,-99.99,,,-99.99,,2013-05-31 04:12:00,
2013-05-30 23:22:00,65.0,63.0,-100.00,ESE,110,1.0,1.0,91,-99.99,,,-99.99,,2013-05-31 04:22:00,
2013-05-30 23:33:00,61.0,58.0,-100.00,ESE,105,1.0,1.0,90,-99.99,,,-99.99,,2013-05-31 04:33:00,
2013-05-30 23:42:00,64.0,61.0,-100.00,SE,135,1.0,1.0,90,-99.99,,,-99.99,,2013-05-31 04:42:00,
2013-05-30 23:53:00,64.0,61.0,-100.00,SE,135,1.0,1.0,90,-99.99,,,-99.99,,2013-05-31 04:53:00,